sensor_id;sensor_type;location;lat;lon;timestamp;P1;durP1;ratioP1;P2;durP2;ratioP2
61938;SDS011;47897;50.322;18.892;2022-11-15T17:09:55;140.80;;;75.70;;
61938;SDS011;47897;50.322;18.892;2022-11-15T17:12:21;166.00;;;82.60;;
61938;SDS011;47897;50.322;18.892;2022-11-15T17:14:46;166.20;;;86.60;;
61938;SDS011;47897;50.322;18.892;2022-11-15T17:17:12;166.80;;;93.40;;
61938;SDS011;47897;50.322;18.892;2022-11-15T17:19:38;181.80;;;92.30;;
61938;SDS011;47897;50.322;18.892;2022-11-15T17:22:03;180.60;;;93.00;;
61938;SDS011;47897;50.322;18.892;2022-11-15T17:24:29;196.00;;;96.90;;
61938;SDS011;47897;50.322;18.892;2022-11-15T17:26:56;206.00;;;102.60;;
61938;SDS011;47897;50.322;18.892;2022-11-15T17:29:21;196.70;;;97.30;;
61938;SDS011;47897;50.322;18.892;2022-11-15T17:31:47;187.90;;;92.60;;
61938;SDS011;47897;50.322;18.892;2022-11-15T17:34:12;185.40;;;88.00;;
61938;SDS011;47897;50.322;18.892;2022-11-15T17:36:38;180.50;;;90.30;;
61938;SDS011;47897;50.322;18.892;2022-11-15T17:39:03;204.50;;;104.60;;
61938;SDS011;47897;50.322;18.892;2022-11-15T17:41:29;214.80;;;106.30;;
61938;SDS011;47897;50.322;18.892;2022-11-15T17:43:58;194.20;;;103.70;;
61938;SDS011;47897;50.322;18.892;2022-11-15T17:46:24;202.50;;;105.30;;
61938;SDS011;47897;50.322;18.892;2022-11-15T17:48:50;208.10;;;105.20;;
61938;SDS011;47897;50.322;18.892;2022-11-15T17:51:16;198.40;;;99.40;;
61938;SDS011;47897;50.322;18.892;2022-11-15T17:53:43;194.70;;;95.90;;
61938;SDS011;47897;50.322;18.892;2022-11-15T17:56:13;180.80;;;90.30;;
61938;SDS011;47897;50.322;18.892;2022-11-15T17:58:40;167.00;;;87.30;;
61938;SDS011;47897;50.322;18.892;2022-11-15T18:06:03;187.80;;;92.10;;
61938;SDS011;47897;50.322;18.892;2022-11-15T18:08:28;209.60;;;99.50;;
61938;SDS011;47897;50.322;18.892;2022-11-15T18:11:00;194.40;;;100.50;;
61938;SDS011;47897;50.322;18.892;2022-11-15T18:13:26;200.80;;;98.50;;
61938;SDS011;47897;50.322;18.892;2022-11-15T18:15:54;197.80;;;99.30;;
61938;SDS011;47897;50.322;18.892;2022-11-15T18:18:20;188.30;;;97.80;;
61938;SDS011;47897;50.322;18.892;2022-11-15T18:20:46;196.70;;;101.20;;
61938;SDS011;47897;50.322;18.892;2022-11-15T18:23:11;199.50;;;106.60;;
61938;SDS011;47897;50.322;18.892;2022-11-15T18:25:37;207.20;;;107.70;;
61938;SDS011;47897;50.322;18.892;2022-11-15T18:28:02;201.00;;;101.00;;
61938;SDS011;47897;50.322;18.892;2022-11-15T18:30:28;202.50;;;107.80;;
61938;SDS011;47897;50.322;18.892;2022-11-15T18:32:53;190.90;;;106.70;;
61938;SDS011;47897;50.322;18.892;2022-11-15T18:35:19;192.80;;;108.00;;
61938;SDS011;47897;50.322;18.892;2022-11-15T18:37:44;205.70;;;110.30;;
61938;SDS011;47897;50.322;18.892;2022-11-15T18:40:10;201.60;;;110.50;;
61938;SDS011;47897;50.322;18.892;2022-11-15T18:42:36;196.10;;;105.10;;
61938;SDS011;47897;50.322;18.892;2022-11-15T18:45:01;184.60;;;100.40;;
61938;SDS011;47897;50.322;18.892;2022-11-15T18:47:27;181.90;;;99.10;;
61938;SDS011;47897;50.322;18.892;2022-11-15T18:49:54;189.70;;;97.80;;
61938;SDS011;47897;50.322;18.892;2022-11-15T18:52:22;173.90;;;90.30;;
61938;SDS011;47897;50.322;18.892;2022-11-15T18:54:48;180.10;;;91.20;;
61938;SDS011;47897;50.322;18.892;2022-11-15T18:57:13;196.10;;;98.60;;
61938;SDS011;47897;50.322;18.892;2022-11-15T18:59:39;207.50;;;100.80;;
61938;SDS011;47897;50.322;18.892;2022-11-15T19:02:05;224.40;;;105.90;;
61938;SDS011;47897;50.322;18.892;2022-11-15T19:04:30;206.80;;;104.20;;
61938;SDS011;47897;50.322;18.892;2022-11-15T19:06:56;213.30;;;113.80;;
61938;SDS011;47897;50.322;18.892;2022-11-15T19:09:21;224.60;;;117.30;;
61938;SDS011;47897;50.322;18.892;2022-11-15T19:11:51;217.10;;;112.80;;
61938;SDS011;47897;50.322;18.892;2022-11-15T19:14:17;209.20;;;107.20;;
61938;SDS011;47897;50.322;18.892;2022-11-15T19:16:44;206.10;;;106.10;;
61938;SDS011;47897;50.322;18.892;2022-11-15T19:19:13;224.80;;;115.30;;
61938;SDS011;47897;50.322;18.892;2022-11-15T19:21:40;209.70;;;110.40;;
61938;SDS011;47897;50.322;18.892;2022-11-15T19:24:05;246.80;;;127.80;;
61938;SDS011;47897;50.322;18.892;2022-11-15T19:26:31;460.20;;;193.90;;
61938;SDS011;47897;50.322;18.892;2022-11-15T19:28:57;391.10;;;168.30;;
61938;SDS011;47897;50.322;18.892;2022-11-15T19:31:24;364.90;;;157.70;;
61938;SDS011;47897;50.322;18.892;2022-11-15T19:33:50;337.70;;;148.00;;
61938;SDS011;47897;50.322;18.892;2022-11-15T19:36:18;322.10;;;142.20;;
61938;SDS011;47897;50.322;18.892;2022-11-15T19:38:44;340.80;;;156.00;;
61938;SDS011;47897;50.322;18.892;2022-11-15T19:41:11;346.00;;;148.60;;
61938;SDS011;47897;50.322;18.892;2022-11-15T19:43:36;374.30;;;155.40;;
61938;SDS011;47897;50.322;18.892;2022-11-15T19:46:03;364.20;;;158.70;;
61938;SDS011;47897;50.322;18.892;2022-11-15T19:48:29;368.60;;;162.80;;
61938;SDS011;47897;50.322;18.892;2022-11-15T19:50:58;299.10;;;137.00;;
61938;SDS011;47897;50.322;18.892;2022-11-15T19:53:24;245.20;;;123.80;;
61938;SDS011;47897;50.322;18.892;2022-11-15T19:55:56;220.90;;;116.20;;
61938;SDS011;47897;50.322;18.892;2022-11-15T19:58:23;214.50;;;114.90;;
61938;SDS011;47897;50.322;18.892;2022-11-15T20:00:49;196.00;;;104.20;;
61938;SDS011;47897;50.322;18.892;2022-11-15T20:03:14;206.60;;;102.40;;
61938;SDS011;47897;50.322;18.892;2022-11-15T20:05:40;213.60;;;109.30;;
61938;SDS011;47897;50.322;18.892;2022-11-15T20:08:06;238.90;;;123.50;;
61938;SDS011;47897;50.322;18.892;2022-11-15T20:10:32;309.60;;;150.40;;
61938;SDS011;47897;50.322;18.892;2022-11-15T20:12:57;366.10;;;172.10;;
61938;SDS011;47897;50.322;18.892;2022-11-15T20:15:23;404.10;;;186.50;;
61938;SDS011;47897;50.322;18.892;2022-11-15T20:17:48;429.10;;;197.90;;
61938;SDS011;47897;50.322;18.892;2022-11-15T20:20:14;336.70;;;160.40;;
61938;SDS011;47897;50.322;18.892;2022-11-15T20:22:40;297.80;;;140.20;;
61938;SDS011;47897;50.322;18.892;2022-11-15T20:25:05;273.70;;;132.10;;
61938;SDS011;47897;50.322;18.892;2022-11-15T20:27:31;296.60;;;130.70;;
61938;SDS011;47897;50.322;18.892;2022-11-15T20:29:56;275.60;;;119.60;;
61938;SDS011;47897;50.322;18.892;2022-11-15T20:32:22;233.70;;;115.50;;
61938;SDS011;47897;50.322;18.892;2022-11-15T20:34:48;227.70;;;105.90;;
61938;SDS011;47897;50.322;18.892;2022-11-15T20:37:14;231.40;;;110.90;;
61938;SDS011;47897;50.322;18.892;2022-11-15T20:39:39;230.50;;;107.60;;
61938;SDS011;47897;50.322;18.892;2022-11-15T20:42:05;244.20;;;115.60;;
61938;SDS011;47897;50.322;18.892;2022-11-15T20:44:30;236.40;;;116.10;;
61938;SDS011;47897;50.322;18.892;2022-11-15T20:46:56;223.50;;;110.10;;
61938;SDS011;47897;50.322;18.892;2022-11-15T20:49:21;209.40;;;107.20;;
61938;SDS011;47897;50.322;18.892;2022-11-15T20:51:47;226.60;;;107.00;;
61938;SDS011;47897;50.322;18.892;2022-11-15T20:54:12;250.20;;;114.30;;
61938;SDS011;47897;50.322;18.892;2022-11-15T20:56:38;259.20;;;116.60;;
61938;SDS011;47897;50.322;18.892;2022-11-15T20:59:03;292.20;;;119.10;;
61938;SDS011;47897;50.322;18.892;2022-11-15T21:01:29;281.20;;;120.30;;
61938;SDS011;47897;50.322;18.892;2022-11-15T21:03:59;284.90;;;124.80;;
61938;SDS011;47897;50.322;18.892;2022-11-15T21:06:25;262.30;;;125.50;;
61938;SDS011;47897;50.322;18.892;2022-11-15T21:08:51;257.70;;;129.30;;
61938;SDS011;47897;50.322;18.892;2022-11-15T21:11:36;239.00;;;120.40;;
61938;SDS011;47897;50.322;18.892;2022-11-15T21:14:20;236.80;;;116.40;;
61938;SDS011;47897;50.322;18.892;2022-11-15T21:16:46;236.00;;;116.60;;
61938;SDS011;47897;50.322;18.892;2022-11-15T21:19:11;233.70;;;110.30;;
61938;SDS011;47897;50.322;18.892;2022-11-15T21:21:38;258.10;;;119.70;;
61938;SDS011;47897;50.322;18.892;2022-11-15T21:24:04;288.40;;;129.80;;
61938;SDS011;47897;50.322;18.892;2022-11-15T21:26:30;267.00;;;120.30;;
61938;SDS011;47897;50.322;18.892;2022-11-15T21:28:56;249.50;;;117.90;;
61938;SDS011;47897;50.322;18.892;2022-11-15T21:31:21;229.20;;;109.30;;
61938;SDS011;47897;50.322;18.892;2022-11-15T21:33:47;232.70;;;108.90;;
61938;SDS011;47897;50.322;18.892;2022-11-15T21:36:12;245.30;;;112.40;;
61938;SDS011;47897;50.322;18.892;2022-11-15T21:38:38;216.20;;;105.90;;
61938;SDS011;47897;50.322;18.892;2022-11-15T21:41:04;212.20;;;100.60;;
61938;SDS011;47897;50.322;18.892;2022-11-15T21:43:30;227.20;;;110.50;;
61938;SDS011;47897;50.322;18.892;2022-11-15T21:45:56;227.00;;;112.80;;
61938;SDS011;47897;50.322;18.892;2022-11-15T21:48:23;235.30;;;111.70;;
61938;SDS011;47897;50.322;18.892;2022-11-15T21:50:55;233.80;;;111.70;;
61938;SDS011;47897;50.322;18.892;2022-11-15T21:53:20;227.80;;;109.60;;
61938;SDS011;47897;50.322;18.892;2022-11-15T21:55:46;243.80;;;115.90;;
61938;SDS011;47897;50.322;18.892;2022-11-15T21:58:11;264.10;;;117.70;;
61938;SDS011;47897;50.322;18.892;2022-11-15T22:00:40;220.40;;;107.30;;
61938;SDS011;47897;50.322;18.892;2022-11-15T22:03:24;217.60;;;104.30;;
61938;SDS011;47897;50.322;18.892;2022-11-15T22:05:50;216.00;;;106.50;;
61938;SDS011;47897;50.322;18.892;2022-11-15T22:08:15;203.60;;;99.20;;
61938;SDS011;47897;50.322;18.892;2022-11-15T22:10:44;219.60;;;105.80;;
61938;SDS011;47897;50.322;18.892;2022-11-15T22:13:10;215.90;;;103.60;;
61938;SDS011;47897;50.322;18.892;2022-11-15T22:15:35;205.90;;;94.80;;
61938;SDS011;47897;50.322;18.892;2022-11-15T22:18:01;203.60;;;92.40;;
61938;SDS011;47897;50.322;18.892;2022-11-15T22:20:27;185.10;;;84.90;;
61938;SDS011;47897;50.322;18.892;2022-11-15T22:22:55;169.90;;;80.50;;
61938;SDS011;47897;50.322;18.892;2022-11-15T22:25:20;195.00;;;83.90;;
61938;SDS011;47897;50.322;18.892;2022-11-15T22:27:46;173.60;;;83.50;;
61938;SDS011;47897;50.322;18.892;2022-11-15T22:30:11;168.70;;;81.10;;
61938;SDS011;47897;50.322;18.892;2022-11-15T22:32:37;170.80;;;82.70;;
61938;SDS011;47897;50.322;18.892;2022-11-15T22:35:02;188.10;;;86.30;;
61938;SDS011;47897;50.322;18.892;2022-11-15T22:37:28;175.90;;;80.60;;
61938;SDS011;47897;50.322;18.892;2022-11-15T22:39:53;179.30;;;83.70;;
61938;SDS011;47897;50.322;18.892;2022-11-15T22:42:19;176.90;;;82.30;;
61938;SDS011;47897;50.322;18.892;2022-11-15T22:44:44;181.10;;;89.40;;
61938;SDS011;47897;50.322;18.892;2022-11-15T22:47:10;175.20;;;87.00;;
61938;SDS011;47897;50.322;18.892;2022-11-15T22:49:35;186.30;;;91.80;;
61938;SDS011;47897;50.322;18.892;2022-11-15T22:52:01;183.90;;;87.70;;
61938;SDS011;47897;50.322;18.892;2022-11-15T22:54:26;182.20;;;91.30;;
61938;SDS011;47897;50.322;18.892;2022-11-15T22:56:53;183.30;;;91.20;;
61938;SDS011;47897;50.322;18.892;2022-11-15T22:59:19;187.50;;;92.60;;
61938;SDS011;47897;50.322;18.892;2022-11-15T23:01:44;189.20;;;95.70;;
61938;SDS011;47897;50.322;18.892;2022-11-15T23:04:10;186.80;;;94.80;;
61938;SDS011;47897;50.322;18.892;2022-11-15T23:06:35;205.50;;;102.40;;
61938;SDS011;47897;50.322;18.892;2022-11-15T23:09:01;197.20;;;100.30;;
61938;SDS011;47897;50.322;18.892;2022-11-15T23:11:26;203.00;;;98.30;;
61938;SDS011;47897;50.322;18.892;2022-11-15T23:14:10;209.10;;;94.00;;
61938;SDS011;47897;50.322;18.892;2022-11-15T23:16:36;183.40;;;90.30;;
61938;SDS011;47897;50.322;18.892;2022-11-15T23:19:03;190.30;;;92.40;;
61938;SDS011;47897;50.322;18.892;2022-11-15T23:21:34;199.10;;;96.80;;
61938;SDS011;47897;50.322;18.892;2022-11-15T23:24:19;190.70;;;92.20;;
61938;SDS011;47897;50.322;18.892;2022-11-15T23:26:45;190.40;;;88.80;;
61938;SDS011;47897;50.322;18.892;2022-11-15T23:29:12;194.00;;;92.40;;
61938;SDS011;47897;50.322;18.892;2022-11-15T23:31:38;181.40;;;92.50;;
61938;SDS011;47897;50.322;18.892;2022-11-15T23:34:22;194.20;;;91.70;;
61938;SDS011;47897;50.322;18.892;2022-11-15T23:36:47;196.00;;;97.90;;
61938;SDS011;47897;50.322;18.892;2022-11-15T23:39:13;187.30;;;89.60;;
61938;SDS011;47897;50.322;18.892;2022-11-15T23:41:38;186.60;;;88.90;;
61938;SDS011;47897;50.322;18.892;2022-11-15T23:44:04;182.40;;;89.60;;
61938;SDS011;47897;50.322;18.892;2022-11-15T23:46:30;188.40;;;92.60;;
61938;SDS011;47897;50.322;18.892;2022-11-15T23:48:55;191.90;;;92.40;;
61938;SDS011;47897;50.322;18.892;2022-11-15T23:51:21;198.50;;;95.80;;
61938;SDS011;47897;50.322;18.892;2022-11-15T23:53:46;185.70;;;92.50;;
61938;SDS011;47897;50.322;18.892;2022-11-15T23:56:13;189.40;;;90.70;;
61938;SDS011;47897;50.322;18.892;2022-11-15T23:58:39;197.30;;;92.60;;
